Mads Kjaer

Olheiro - FC Copenhagen
4 Abr 2027
Domingo
Processo

Personalidade

Adaptabilidade (1) Ambição (4) Controvérsia (8) Lealdade (7) Pressão (9) Profissionalismo (8) Espírito Esportivo (4) Temperamento (19)

Perfil

Estilo de Treinamento Democrático
Licença Continental C
Determinação 5
Gestão de Pessoas 9
Motivação 6
Disciplina 10
Satisfação no Trabalho
50%
Fadiga
0%
Função Olheiro
Salário 74.8K p/s
Contrato 14.03.2030

Desempenho

Comportamento Normal
Eficácia do Treinamento
26%
Desenvolvimento do Jogador
55%
Prevenção de Lesões
30%
Implementação Tática
45%

Eventos Recentes

Participou de uma reunião de recrutamento 7d atrás
Participou de uma reunião de recrutamento 14d atrás
Participou de uma reunião de recrutamento 21d atrás
Participou de uma reunião de recrutamento 28d atrás
Participou de uma reunião de recrutamento 35d atrás
Participou de uma reunião de recrutamento 42d atrás
Participou de uma reunião de recrutamento 49d atrás
Participou de uma reunião de recrutamento 56d atrás

Monitorando agora

128
Jogador Clube Status Habilidade Confiança Observado Última observação Último voto
Iwan Morgan Grimsby Town Ativo 108 / 129 40% 2 19.01.2027 -
Aidomo Emakhu Oxford United Ativo 115 / 113 40% 1 19.01.2027 -
Alexey Batrakov Galatasaray Ativo 156 / 138 40% 1 19.01.2027 -
Noah Ganaus OB Perdido 108 / 106 69% 1 11.01.2027 Aprovar
Ola Solbakken FC Nordsjaelland Perdido 117 / 135 69% 1 01.01.2027 -
Anel Ahmedhodžić Burnley Ativo 125 / 126 40% 1 31.12.2026 -
Max Johnston Derby County Ativo 116 / 138 40% 1 31.12.2026 -
Jakub Stolarczyk Leicester City Ativo 125 / 114 40% 2 29.12.2026 -
Đorđe Petrović Bournemouth Ativo 158 / 160 40% 1 29.12.2026 -
Pedro Bravo FC Midtjylland Ativo 128 / 131 40% 4 28.12.2026 -
Flynn Downes Southampton Ativo 125 / 131 40% 2 28.12.2026 -
Antonino Gallo Lecce Ativo 133 / 144 40% 1 28.12.2026 -
Luther Zwane Platinum Stars Perdido 109 / 109 40% 3 24.12.2026 -
Ezekiel Kwame Alladoh Philadelphia Union Ativo 117 / 111 40% 2 24.12.2026 -
Dani Ángel Crawley Town Ativo 79 / 87 40% 1 24.12.2026 -
Grégoire Coudert Burnley Ativo 126 / 136 40% 1 23.12.2026 -
Luis Ingolotti Atlético Tucumán Ativo 123 / 118 40% 1 23.12.2026 -
Murphy Cooper Plymouth Argyle Ativo 112 / 108 40% 1 23.12.2026 -
Chris Brady Chicago Fire Ativo 138 / 145 40% 3 22.12.2026 -
Carl Rushworth Coventry City Ativo 148 / 136 40% 1 22.12.2026 -
Lucas Lund Viborg Ativo 121 / 117 40% 2 21.12.2026 -
Marcel Reguła Zaglebie Ativo 99 / 91 40% 3 21.12.2026 -
Luke Baartman Chippa United Ativo 108 / 107 40% 2 21.12.2026 -
Jakub Surovčík Sparta Prague Ativo 102 / 117 40% 2 21.12.2026 -
Oufa Shobeir ES Setif Ativo 113 / 126 40% 1 21.12.2026 -
Nicolas Madsen Queens Park Rangers Ativo 130 / 131 40% 2 18.12.2026 -
Oliver Bundgaard Viborg Ativo 115 / 121 40% 1 18.12.2026 -
Luther Billiat Ajax Cape Town Perdido 138 / 117 40% 2 17.12.2026 -
Issa Kaboré Wrexham Ativo 133 / 142 40% 1 17.12.2026 -
Harry Clarke Preston Ativo 124 / 138 40% 1 17.12.2026 -
Oumar Camara Vitoria Guimaraes Ativo 113 / 138 40% 3 16.12.2026 -
Younes El Bahraoui Al-Taawoun Ativo 114 / 124 40% 1 16.12.2026 -
Tariq Lamptey Queens Park Rangers Ativo 141 / 148 40% 1 15.12.2026 -
Victor Bak FC Midtjylland Ativo 118 / 128 40% 1 15.12.2026 -
Marcus McGuane Huddersfield Town Perdido 113 / 119 40% 1 14.12.2026 -
Daniil Khudyakov Sturm Graz Ativo 110 / 123 40% 2 13.12.2026 -
Dmytro Riznyk Shakhtar Ativo 147 / 145 40% 2 13.12.2026 -
Elías Rafn Ólafsson FC Midtjylland Ativo 122 / 127 40% 4 13.12.2026 -
Ethan Galbraith Swansea City Ativo 140 / 122 40% 2 12.12.2026 -
Kristoffer Lund Birmingham Ativo 116 / 145 40% 1 12.12.2026 -
Heorhii Yermakov Metalist Ativo 105 / 124 40% 3 11.12.2026 -
Anthony Patterson Wrexham Ativo 134 / 126 40% 2 11.12.2026 -
Lorenzo Palmisani Frosinone Ativo 135 / 138 40% 1 11.12.2026 -
Leopold Wahlstedt Rosenborg Ativo 120 / 127 40% 3 10.12.2026 -
Kauã Elias Shakhtar Ativo 130 / 115 40% 3 10.12.2026 -
Mateus Mané Manchester United Ativo 122 / 126 40% 1 10.12.2026 -
Agustín Ruberto River Plate Ativo 116 / 132 40% 1 10.12.2026 -
Kostantis Tzolakis Hull City Ativo 134 / 134 40% 1 10.12.2026 -
Dennis Cirkin Queens Park Rangers Ativo 130 / 131 40% 1 08.12.2026 -
Ronnie Edwards Queens Park Rangers Ativo 134 / 128 40% 1 08.12.2026 -
Adnan Courtois KV Oostende Ativo 125 / 120 40% 2 07.12.2026 -
Kaveh Mohammadi Padideh Ativo 130 / 138 40% 3 04.12.2026 -
Toti Wolverhampton Ativo 142 / 115 40% 1 04.12.2026 -
Pelle Mattsson Norwich City Ativo 127 / 124 40% 1 04.12.2026 -
Leo Castledine Middlesbrough Ativo 119 / 122 40% 1 04.12.2026 -
Marcus Bundgaard SonderjyskE Ativo 105 / 110 40% 4 01.12.2026 -
Alfie Gilchrist West Bromwich Albion Ativo 117 / 134 40% 1 01.12.2026 -
Shea Charles Southampton Ativo 142 / 120 40% 1 01.12.2026 -
Uriël Van Aalst Willem II Ativo 108 / 118 40% 1 29.11.2026 -
Ştefan Târnovanu FCSB Ativo 109 / 108 40% 3 28.11.2026 -
Marios Siabanis Volos NPS Ativo 116 / 114 40% 1 24.11.2026 -
Gedson Fernandes Spartak Moscow Ativo 134 / 124 40% 3 22.11.2026 -
Denil Castillo FC Midtjylland Ativo 114 / 119 40% 2 22.11.2026 -
Tiago Pucciarelli FK Senica Ativo 109 / 101 40% 1 22.11.2026 -
Šimon Gabriel Slovan Liberec Ativo 122 / 119 40% 1 22.11.2026 -
Oleksandr Saputin Zorya Ativo 127 / 130 40% 1 20.11.2026 -
Răzvan Sava Universitatea Craiova Ativo 123 / 137 40% 1 20.11.2026 -
Niklas Hedl Rapid Wien Ativo 119 / 140 40% 2 17.11.2026 -
Patrick Schulte Columbus Crew Ativo 127 / 133 40% 2 16.11.2026 -
Bogdan Petrović TSC Ativo 97 / 120 40% 2 16.11.2026 -
Luka Gavran Toronto FC Ativo 104 / 111 40% 1 16.11.2026 -
Conrad Wallem Valerenga Ativo 127 / 126 40% 2 13.11.2026 -
Mamadou Coulibaly Al Jazira Ativo 132 / 143 40% 1 13.11.2026 -
Gustavo Mantuan Zenit Ativo 127 / 139 40% 1 13.11.2026 -
Samy Merheg Alverca Ativo 117 / 103 40% 1 12.11.2026 -
Kasra Taheri Sepahan Ativo 97 / 121 40% 1 09.11.2026 -
Luther Phiri SuperSport United Ativo 112 / 126 40% 1 07.11.2026 -
Jack Currie Oxford United Ativo 114 / 104 40% 1 07.11.2026 -
Nectar Triantis Minnesota United FC Ativo 122 / 133 40% 1 07.11.2026 -
Daniel Braut Tromso Ativo 99 / 99 40% 1 06.11.2026 -
Arkaitz Mariezkurrena Real Sociedad Ativo 109 / 103 40% 2 05.11.2026 -
Vinicius Tobias Shakhtar Ativo 135 / 112 40% 3 03.11.2026 -
Oscar Fraulo Derby County Ativo 113 / 107 40% 1 03.11.2026 -
Diego Costa Krasnodar Ativo 126 / 127 40% 1 03.11.2026 -
Marlon Gomes Shakhtar Ativo 131 / 118 40% 1 31.10.2026 -
Adrián Alavés Ativo 111 / 114 40% 1 29.10.2026 -
Ousmane Diao FC Midtjylland Ativo 121 / 112 40% 1 29.10.2026 -
Tiago Dantas HNK Rijeka Ativo 129 / 132 40% 1 29.10.2026 -
Mahamadou Doumbia Al-Ittihad Ativo 134 / 118 40% 1 29.10.2026 -
Bryan Ramírez FC Cincinnati Ativo 127 / 115 40% 2 27.10.2026 -
Sean Zawadzki Columbus Crew Ativo 128 / 125 40% 1 27.10.2026 -
Miguel Navarro Colorado Rapids Ativo 124 / 123 40% 2 26.10.2026 -
Markus Solbakken AGF Ativo 118 / 109 40% 1 26.10.2026 -
Nikita Kokarev Krylya Sovetov Ativo 104 / 102 40% 3 22.10.2026 -
Richard Ludha MFK Skalica Ativo 119 / 129 40% 3 20.10.2026 -
Antonín Kinský Tottenham Ativo 147 / 136 40% 1 20.10.2026 -
Loïc Williams Colorado Rapids Ativo 122 / 124 40% 1 19.10.2026 -
David Brekalo Orlando City Ativo 123 / 124 40% 1 19.10.2026 -
Mads Roerslev Southampton Ativo 119 / 107 40% 1 19.10.2026 -
Roman Celentano FC Cincinnati Ativo 117 / 112 40% 2 18.10.2026 -
John Pulskamp Sporting Kansas City Ativo 115 / 120 40% 2 18.10.2026 -
Rasmus Carstensen AGF Ativo 129 / 124 40% 2 18.10.2026 -
Ho-yeon Jung Minnesota United FC Ativo 131 / 112 40% 1 18.10.2026 -
Dinko Horkaš Al Wasl Ativo 115 / 142 40% 1 16.10.2026 -
Ľubomír Belko Viking Ativo 130 / 133 40% 2 13.10.2026 -
Abduvohid Ne'matov Nasaf Ativo 106 / 120 40% 1 13.10.2026 -
Dominik Takáč Slovan Bratislava Ativo 140 / 139 40% 1 13.10.2026 -
Cole Bassett Portland Timbers Ativo 120 / 128 40% 1 12.10.2026 -
Jean-Manuel Mbom Viborg Ativo 110 / 120 40% 1 12.10.2026 -
Mads Hedenstad AGF Ativo 123 / 114 40% 1 11.10.2026 -
Victor Aznar Cádiz Ativo 119 / 110 40% 1 08.10.2026 -
Ruslan Neshcheret Dynamo Kyiv Ativo 125 / 119 40% 1 08.10.2026 -
Cristopher Varela Deportivo La Guaira Ativo 107 / 125 40% 1 07.10.2026 -
Mauricio Amaro Atlanta United FC Ativo 118 / 125 40% 1 06.10.2026 -
Mads Bech Sørensen FC Midtjylland Ativo 139 / 119 40% 1 06.10.2026 -
Colin Rösler AGF Ativo 112 / 110 40% 1 05.10.2026 -
Arthur Beroe Ativo 105 / 116 40% 1 03.10.2026 -
Pontus Dahlberg Lillestrom Ativo 108 / 119 40% 1 03.10.2026 -
Samu Maccabi Netanya Ativo 109 / 111 40% 1 30.09.2026 -
Jay Gorter Pafos Ativo 123 / 99 40% 1 23.09.2026 -
Iñaki Peña Panathinaikos Ativo 148 / 120 40% 1 22.09.2026 -
Mamour N'Diaye Sarpsborg 08 Ativo 114 / 112 40% 1 22.09.2026 -
Matevž Vidovšek Olimpija Ljubljana Ativo 115 / 127 40% 1 21.09.2026 -
Nahuel Manganelli Dinamo Batumi Ativo 119 / 105 40% 1 19.09.2026 -
Evidence Billiat Ajax Cape Town Ativo 117 / 110 40% 1 19.09.2026 -
Mandla Jali SuperSport United Ativo 111 / 130 40% 1 10.09.2026 -
Runar Norheim FC Nordsjaelland Perdido 116 / 116 69% 1 17.08.2026 Aprovar
Matías Argüello Olimpia Ativo 99 / 92 40% 1 01.08.2026 -